Time;durP1;ratioP1;P1;durP2;ratioP2;P2;SDS_P1;SDS_P2;PMS_P1;PMS_P2;Temp;Humidity;BMP_temperature;BMP_pressure;BME280_temperature;BME280_humidity;BME280_pressure;Samples;Min_cycle;Max_cycle;Signal;HPM_P1;HPM_P2
2022/04/01 00:00:04;;;;;;;13.73;10.97;;;;;;;;;;5035440;28;20556;-75
2022/04/01 00:02:30;;;;;;;17.17;12.53;;;;;;;;;;5034690;28;20904;-75
2022/04/01 00:04:56;;;;;;;12.87;10.00;;;;;;;;;;5035078;28;20486;-75
2022/04/01 00:07:22;;;;;;;6.97;5.67;;;;;;;;;;5035426;28;20403;-75
2022/04/01 00:09:48;;;;;;;6.83;5.30;;;;;;;;;;5035433;28;20410;-75
2022/04/01 00:12:14;;;;;;;8.50;5.00;;;;;;;;;;5035347;28;20414;-75
2022/04/01 00:14:40;;;;;;;7.27;4.40;;;;;;;;;;5035252;28;20394;-74
2022/04/01 00:17:06;;;;;;;10.10;5.93;;;;;;;;;;5034902;28;20446;-75
2022/04/01 00:19:32;;;;;;;6.93;4.90;;;;;;;;;;5017139;28;20441;-75
2022/04/01 00:21:58;;;;;;;8.70;6.03;;;;;;;;;;5034872;28;20445;-75
2022/04/01 00:24:24;;;;;;;7.70;5.80;;;;;;;;;;5034649;28;20492;-75
2022/04/01 00:26:51;;;;;;;7.73;5.90;;;;;;;;;;5034675;28;20501;-74
2022/04/01 00:29:17;;;;;;;7.17;5.03;;;;;;;;;;5034692;28;20398;-75
2022/04/01 00:31:48;;;;;;;7.20;5.00;;;;;;;;;;5034942;28;20847;-75
2022/04/01 00:34:17;;;;;;;5.43;4.13;;;;;;;;;;5034846;28;20827;-75
2022/04/01 00:36:47;;;;;;;5.50;3.80;;;;;;;;;;5016958;28;20417;-75
2022/04/01 00:39:14;;;;;;;6.60;4.90;;;;;;;;;;5034966;28;20449;-75
2022/04/01 00:41:40;;;;;;;7.43;5.30;;;;;;;;;;5034918;28;20758;-75
2022/04/01 00:44:16;;;;;;;6.47;5.50;;;;;;;;;;5034858;28;20438;-75
2022/04/01 00:46:46;;;;;;;7.57;4.50;;;;;;;;;;5034808;28;20406;-75
2022/04/01 00:49:12;;;;;;;7.30;5.20;;;;;;;;;;5034818;28;20891;-75
2022/04/01 00:51:41;;;;;;;5.87;4.60;;;;;;;;;;5034681;28;20410;-75
2022/04/01 00:54:08;;;;;;;17.43;11.23;;;;;;;;;;5034553;28;20434;-75
2022/04/01 00:56:35;;;;;;;5.73;4.67;;;;;;;;;;5034444;28;20414;-75
2022/04/01 00:59:02;;;;;;;7.27;5.80;;;;;;;;;;5034385;28;20920;-75
2022/04/01 01:01:28;;;;;;;6.27;5.53;;;;;;;;;;5034175;28;20409;-75
2022/04/01 01:03:54;;;;;;;6.23;4.90;;;;;;;;;;5034073;28;20521;-75
2022/04/01 01:06:21;;;;;;;6.27;4.90;;;;;;;;;;5016456;28;20434;-75
2022/04/01 01:08:48;;;;;;;7.83;5.80;;;;;;;;;;5034224;28;20929;-75
2022/04/01 01:11:14;;;;;;;7.17;5.93;;;;;;;;;;5034245;28;20398;-75
2022/04/01 01:13:40;;;;;;;5.37;4.43;;;;;;;;;;5033865;28;20428;-75
2022/04/01 01:16:07;;;;;;;8.40;5.57;;;;;;;;;;5016476;28;20414;-75
2022/04/01 01:18:33;;;;;;;6.00;4.77;;;;;;;;;;5034000;28;20504;-75
2022/04/01 01:20:59;;;;;;;6.40;5.47;;;;;;;;;;5034267;28;20411;-75
2022/04/01 01:23:34;;;;;;;8.20;5.73;;;;;;;;;;5033971;28;20864;-75
2022/04/01 01:26:00;;;;;;;9.43;5.80;;;;;;;;;;5033938;28;20378;-75
2022/04/01 01:28:27;;;;;;;6.57;5.07;;;;;;;;;;5033886;28;20836;-75
2022/04/01 01:30:53;;;;;;;9.10;5.70;;;;;;;;;;5033796;28;20425;-75
2022/04/01 01:33:22;;;;;;;7.43;5.67;;;;;;;;;;5033623;28;20941;-75
2022/04/01 01:35:48;;;;;;;7.03;5.40;;;;;;;;;;5033723;28;20407;-75
2022/04/01 01:38:18;;;;;;;6.57;4.53;;;;;;;;;;5033780;28;20944;-75
2022/04/01 01:40:45;;;;;;;7.90;4.93;;;;;;;;;;5014496;28;20445;-75
2022/04/01 01:43:13;;;;;;;7.10;5.40;;;;;;;;;;5033725;28;20430;-75
2022/04/01 01:45:39;;;;;;;6.67;5.47;;;;;;;;;;5033793;28;20425;-75
2022/04/01 01:48:05;;;;;;;7.57;5.60;;;;;;;;;;5033505;28;20828;-75
2022/04/01 01:56:01;;;;;;;6.20;4.90;;;;;;;;;;5033823;28;20437;-75
2022/04/01 01:58:27;;;;;;;7.57;5.87;;;;;;;;;;5033684;28;20473;-76
2022/04/01 02:00:53;;;;;;;7.83;5.70;;;;;;;;;;5033401;28;20409;-75
2022/04/01 02:03:19;;;;;;;7.33;6.00;;;;;;;;;;5033088;28;20457;-75
2022/04/01 02:05:46;;;;;;;7.80;5.57;;;;;;;;;;5033481;28;20398;-75
2022/04/01 02:08:12;;;;;;;9.93;4.90;;;;;;;;;;5033592;28;20407;-75
2022/04/01 02:10:38;;;;;;;14.80;6.53;;;;;;;;;;5033436;28;20490;-75
2022/04/01 02:13:05;;;;;;;8.23;4.90;;;;;;;;;;5015605;28;20813;-75
2022/04/01 02:15:33;;;;;;;9.70;5.70;;;;;;;;;;5033791;28;20815;-74
2022/04/01 02:17:59;;;;;;;8.87;6.67;;;;;;;;;;5033550;28;20545;-75
2022/04/01 02:20:25;;;;;;;8.90;6.43;;;;;;;;;;5033321;28;20437;-75
2022/04/01 02:22:53;;;;;;;5.40;4.30;;;;;;;;;;5033078;28;20449;-75
2022/04/01 02:25:19;;;;;;;5.63;4.03;;;;;;;;;;5033886;28;20425;-75
2022/04/01 02:27:45;;;;;;;5.80;4.63;;;;;;;;;;5039445;28;20469;-75
2022/04/01 02:30:11;;;;;;;6.57;4.30;;;;;;;;;;5039994;28;20409;-75
2022/04/01 02:32:39;;;;;;;5.03;3.60;;;;;;;;;;5040050;28;20432;-75
2022/04/01 02:35:05;;;;;;;5.00;4.20;;;;;;;;;;5039697;28;20403;-75
2022/04/01 02:37:31;;;;;;;4.50;3.67;;;;;;;;;;5039795;28;20449;-75
2022/04/01 02:39:58;;;;;;;7.40;4.57;;;;;;;;;;5039865;28;20402;-75
2022/04/01 02:42:24;;;;;;;5.40;4.23;;;;;;;;;;5040036;28;20398;-75
2022/04/01 02:44:50;;;;;;;4.50;4.10;;;;;;;;;;5039786;28;20477;-75
2022/04/01 02:47:16;;;;;;;4.77;3.93;;;;;;;;;;5039941;28;20753;-74
2022/04/01 02:49:42;;;;;;;4.33;3.67;;;;;;;;;;5039329;28;20819;-75
2022/04/01 02:52:08;;;;;;;5.37;4.10;;;;;;;;;;5039765;28;20402;-75
2022/04/01 02:54:35;;;;;;;5.67;3.83;;;;;;;;;;5040023;28;20487;-75
2022/04/01 02:57:02;;;;;;;5.67;4.57;;;;;;;;;;5039683;28;20446;-75
2022/04/01 02:59:29;;;;;;;4.47;3.70;;;;;;;;;;5039959;28;20410;-74
2022/04/01 03:01:55;;;;;;;4.50;3.57;;;;;;;;;;5039547;28;20394;-75
2022/04/01 03:04:21;;;;;;;5.30;3.27;;;;;;;;;;5039696;28;20567;-75
2022/04/01 03:06:47;;;;;;;4.53;3.27;;;;;;;;;;5040036;28;20420;-75
2022/04/01 03:09:14;;;;;;;3.00;2.70;;;;;;;;;;5039903;28;20397;-74
2022/04/01 03:11:40;;;;;;;4.37;3.07;;;;;;;;;;5039711;28;20399;-75
2022/04/01 03:14:08;;;;;;;3.27;2.83;;;;;;;;;;5039485;28;20421;-75
2022/04/01 03:16:34;;;;;;;4.50;3.27;;;;;;;;;;5037834;28;20456;-74
2022/04/01 03:19:01;;;;;;;3.67;2.80;;;;;;;;;;5039235;28;20787;-75
2022/04/01 03:21:29;;;;;;;4.57;3.17;;;;;;;;;;5040128;28;20497;-74
2022/04/01 03:23:55;;;;;;;3.23;2.87;;;;;;;;;;5039250;28;20478;-74
2022/04/01 03:26:22;;;;;;;4.33;3.10;;;;;;;;;;5039517;28;20415;-75
2022/04/01 03:28:48;;;;;;;5.30;3.67;;;;;;;;;;5039413;28;20774;-74
2022/04/01 03:31:15;;;;;;;3.83;2.80;;;;;;;;;;5039673;28;20402;-75
2022/04/01 03:33:44;;;;;;;3.00;2.60;;;;;;;;;;5039314;28;20422;-74
2022/04/01 03:36:11;;;;;;;3.80;2.83;;;;;;;;;;5039679;28;20402;-74
2022/04/01 03:38:38;;;;;;;2.87;2.50;;;;;;;;;;5036732;28;20454;-75
2022/04/01 03:41:08;;;;;;;3.47;2.80;;;;;;;;;;5035785;28;20410;-74
2022/04/01 03:43:37;;;;;;;3.90;3.10;;;;;;;;;;5036119;28;20474;-75
2022/04/01 03:46:08;;;;;;;4.07;3.13;;;;;;;;;;5036386;28;20815;-75
2022/04/01 03:48:42;;;;;;;3.53;3.10;;;;;;;;;;5036368;28;20468;-74
2022/04/01 03:51:09;;;;;;;3.70;3.10;;;;;;;;;;5036331;28;20764;-75
2022/04/01 03:53:35;;;;;;;3.40;2.70;;;;;;;;;;5035977;28;20934;-75
2022/04/01 03:56:02;;;;;;;5.07;3.43;;;;;;;;;;5036166;28;20497;-74
2022/04/01 03:58:32;;;;;;;3.57;3.17;;;;;;;;;;5035965;28;20445;-75
2022/04/01 04:01:02;;;;;;;4.60;3.43;;;;;;;;;;5036148;28;20771;-74
2022/04/01 04:03:31;;;;;;;3.93;3.00;;;;;;;;;;5034091;28;20465;-75
2022/04/01 04:05:58;;;;;;;4.50;3.80;;;;;;;;;;5035724;28;20918;-75
2022/04/01 04:08:24;;;;;;;6.17;3.90;;;;;;;;;;5018132;28;20414;-75
2022/04/01 04:10:50;;;;;;;3.57;2.90;;;;;;;;;;5035890;28;20414;-75
2022/04/01 04:13:18;;;;;;;4.00;3.23;;;;;;;;;;5035851;28;20430;-74
2022/04/01 04:15:56;;;;;;;5.03;3.73;;;;;;;;;;5017918;28;20411;-74
2022/04/01 04:18:25;;;;;;;3.50;3.20;;;;;;;;;;5035729;28;20458;-75
2022/04/01 04:20:54;;;;;;;4.60;4.13;;;;;;;;;;5035592;28;20485;-75
2022/04/01 04:23:23;;;;;;;6.80;3.50;;;;;;;;;;5035230;28;20438;-74
2022/04/01 04:25:59;;;;;;;3.50;3.10;;;;;;;;;;5035750;28;20403;-75
2022/04/01 04:28:26;;;;;;;4.70;3.67;;;;;;;;;;5035401;28;20398;-75
2022/04/01 04:30:55;;;;;;;3.23;2.90;;;;;;;;;;5035472;28;20414;-75
2022/04/01 04:33:28;;;;;;;4.40;3.50;;;;;;;;;;5035451;28;20427;-75
2022/04/01 04:35:54;;;;;;;4.77;3.00;;;;;;;;;;5035641;28;20406;-75
2022/04/01 04:38:20;;;;;;;4.07;3.07;;;;;;;;;;5035184;28;20811;-75
2022/04/01 04:40:47;;;;;;;3.20;2.63;;;;;;;;;;5035424;28;20417;-74
2022/04/01 04:43:21;;;;;;;3.83;2.90;;;;;;;;;;5035133;28;20415;-75
2022/04/01 04:45:49;;;;;;;5.80;2.53;;;;;;;;;;5035365;28;20494;-74
2022/04/01 04:48:16;;;;;;;4.30;3.40;;;;;;;;;;5035015;28;20410;-74
2022/04/01 04:50:46;;;;;;;4.60;3.10;;;;;;;;;;5034649;28;20407;-75
2022/04/01 04:53:13;;;;;;;4.50;2.77;;;;;;;;;;5035189;28;20458;-74
2022/04/01 04:55:40;;;;;;;3.80;2.77;;;;;;;;;;5017037;28;20410;-74
2022/04/01 04:58:09;;;;;;;3.50;2.67;;;;;;;;;;5034160;28;20454;-75
2022/04/01 05:00:36;;;;;;;3.27;2.77;;;;;;;;;;5016969;28;20468;-75
2022/04/01 05:03:22;;;;;;;3.67;3.17;;;;;;;;;;5017053;28;20457;-75
2022/04/01 05:05:49;;;;;;;3.93;2.70;;;;;;;;;;5034154;28;20411;-75
2022/04/01 05:08:26;;;;;;;3.27;2.50;;;;;;;;;;5016950;28;20414;-74
2022/04/01 05:10:55;;;;;;;3.30;2.80;;;;;;;;;;5034411;28;20425;-75
2022/04/01 05:13:41;;;;;;;4.13;2.60;;;;;;;;;;5034517;28;20462;-75
2022/04/01 05:16:11;;;;;;;3.00;2.20;;;;;;;;;;5034798;28;20387;-74
2022/04/01 05:18:44;;;;;;;3.00;2.47;;;;;;;;;;5035141;28;20449;-74
2022/04/01 05:21:18;;;;;;;3.97;2.30;;;;;;;;;;5016644;28;20775;-74
2022/04/01 05:24:00;;;;;;;3.07;2.47;;;;;;;;;;5020429;23;20944;-77
2022/04/01 05:26:38;;;;;;;3.87;2.60;;;;;;;;;;4994958;28;20459;-76
2022/04/01 05:29:07;;;;;;;3.10;2.63;;;;;;;;;;4995279;28;20408;-76
2022/04/01 05:31:37;;;;;;;2.97;2.53;;;;;;;;;;4981127;28;20412;-77
2022/04/01 05:34:08;;;;;;;3.57;2.60;;;;;;;;;;4998491;28;20840;-77
2022/04/01 05:36:34;;;;;;;3.30;2.53;;;;;;;;;;4998080;28;20365;-77
2022/04/01 05:39:01;;;;;;;3.60;2.70;;;;;;;;;;4996013;28;20506;-76
2022/04/01 05:41:28;;;;;;;3.50;2.50;;;;;;;;;;4995351;28;20757;-77
2022/04/01 05:43:54;;;;;;;3.33;2.67;;;;;;;;;;4994288;28;20428;-76
2022/04/01 05:46:24;;;;;;;4.40;2.93;;;;;;;;;;4995371;28;20436;-76
2022/04/01 05:48:50;;;;;;;3.90;2.70;;;;;;;;;;4994819;28;20823;-76
2022/04/01 05:51:17;;;;;;;3.97;2.80;;;;;;;;;;4994294;28;20411;-77
2022/04/01 05:53:47;;;;;;;3.30;2.67;;;;;;;;;;4994152;28;20434;-77
2022/04/01 05:56:14;;;;;;;3.57;2.60;;;;;;;;;;4994130;28;20495;-77
2022/04/01 05:58:40;;;;;;;5.33;3.07;;;;;;;;;;4994282;28;20791;-77
2022/04/01 06:01:12;;;;;;;3.40;3.00;;;;;;;;;;4993263;28;20408;-76
2022/04/01 06:03:38;;;;;;;3.03;2.20;;;;;;;;;;4993863;28;20504;-77
2022/04/01 06:06:10;;;;;;;2.70;2.30;;;;;;;;;;4994421;28;20412;-76
2022/04/01 06:08:48;;;;;;;2.43;2.03;;;;;;;;;;4994395;28;20451;-77
2022/04/01 06:11:32;;;;;;;3.00;2.50;;;;;;;;;;4994075;28;20413;-77
2022/04/01 06:14:03;;;;;;;3.20;2.60;;;;;;;;;;4994109;28;20507;-76
2022/04/01 06:16:44;;;;;;;4.30;3.23;;;;;;;;;;4994158;28;20494;-77
2022/04/01 06:19:19;;;;;;;3.17;2.20;;;;;;;;;;4993822;28;20443;-77
2022/04/01 06:21:54;;;;;;;2.60;2.17;;;;;;;;;;4976636;28;20404;-76
2022/04/01 06:24:26;;;;;;;2.40;1.67;;;;;;;;;;4993495;28;20439;-77
2022/04/01 06:27:00;;;;;;;3.23;2.40;;;;;;;;;;4994523;28;20878;-77
2022/04/01 06:29:35;;;;;;;3.00;2.20;;;;;;;;;;4993975;28;20775;-76
2022/04/01 06:32:20;;;;;;;3.13;2.30;;;;;;;;;;4993575;28;20411;-76
2022/04/01 06:35:04;;;;;;;3.07;2.33;;;;;;;;;;4993654;28;20416;-76
2022/04/01 06:37:36;;;;;;;3.60;2.10;;;;;;;;;;4993782;28;20936;-76
2022/04/01 06:40:07;;;;;;;3.80;2.20;;;;;;;;;;4993985;28;20494;-77
2022/04/01 06:42:37;;;;;;;2.50;1.90;;;;;;;;;;4993884;28;20400;-76
2022/04/01 06:45:04;;;;;;;2.67;2.43;;;;;;;;;;4976274;28;20435;-76
2022/04/01 06:47:30;;;;;;;6.13;2.00;;;;;;;;;;4999411;28;20817;-76
2022/04/01 06:49:56;;;;;;;5.27;2.20;;;;;;;;;;5011396;28;20465;-76
2022/04/01 06:52:22;;;;;;;2.50;1.97;;;;;;;;;;5011520;28;20786;-76
2022/04/01 06:54:49;;;;;;;3.13;2.00;;;;;;;;;;5006570;28;20455;-76
2022/04/01 06:57:15;;;;;;;2.80;2.03;;;;;;;;;;4994652;28;20497;-76
2022/04/01 06:59:41;;;;;;;2.57;2.00;;;;;;;;;;5005568;28;20791;-76
2022/04/01 07:02:07;;;;;;;3.50;2.00;;;;;;;;;;5011722;28;20507;-76
2022/04/01 07:04:34;;;;;;;3.67;1.80;;;;;;;;;;5006533;28;20446;-76
2022/04/01 07:07:00;;;;;;;2.30;1.80;;;;;;;;;;5004576;28;20420;-76
2022/04/01 07:09:26;;;;;;;2.30;2.00;;;;;;;;;;5011175;28;20412;-77
2022/04/01 07:11:53;;;;;;;2.33;1.93;;;;;;;;;;4994644;28;20451;-77
2022/04/01 07:14:19;;;;;;;2.70;2.30;;;;;;;;;;5011238;28;20442;-77
2022/04/01 07:16:45;;;;;;;2.50;2.07;;;;;;;;;;5010935;28;20415;-77
2022/04/01 07:19:11;;;;;;;4.97;2.60;;;;;;;;;;5010717;28;20537;-77
2022/04/01 07:21:37;;;;;;;2.63;1.83;;;;;;;;;;4999763;28;20427;-78
2022/04/01 07:24:04;;;;;;;3.70;2.50;;;;;;;;;;5015070;28;20462;-77
2022/04/01 07:26:30;;;;;;;2.90;1.90;;;;;;;;;;5017430;28;20399;-77
2022/04/01 07:28:56;;;;;;;5.60;2.60;;;;;;;;;;5016855;28;20404;-76
2022/04/01 07:34:11;;;;;;;3.70;2.50;;;;;;;;;;5017058;28;20514;-77
2022/04/01 07:36:37;;;;;;;2.37;1.70;;;;;;;;;;5017306;28;20915;-77
2022/04/01 07:39:03;;;;;;;4.27;2.30;;;;;;;;;;5016689;28;20793;-77
2022/04/01 07:41:34;;;;;;;2.40;2.00;;;;;;;;;;5016545;28;20415;-76
2022/04/01 07:44:01;;;;;;;2.83;2.17;;;;;;;;;;4999353;28;20458;-76
2022/04/01 07:46:27;;;;;;;2.87;1.90;;;;;;;;;;5015921;28;20414;-76
2022/04/01 07:48:53;;;;;;;3.30;1.77;;;;;;;;;;5016282;28;20888;-77
2022/04/01 07:51:19;;;;;;;3.20;2.30;;;;;;;;;;5017303;28;20433;-77
2022/04/01 07:53:45;;;;;;;3.00;1.70;;;;;;;;;;5016624;28;20503;-77
2022/04/01 07:56:11;;;;;;;2.80;1.70;;;;;;;;;;5016244;28;20395;-77
2022/04/01 07:58:37;;;;;;;2.13;1.67;;;;;;;;;;5016082;28;20451;-77
2022/04/01 08:01:03;;;;;;;2.43;1.47;;;;;;;;;;5016790;28;20407;-77
2022/04/01 08:03:29;;;;;;;3.60;1.40;;;;;;;;;;5016604;28;20518;-77
2022/04/01 08:05:55;;;;;;;2.57;1.57;;;;;;;;;;5017049;28;20408;-77
2022/04/01 08:08:21;;;;;;;2.40;1.60;;;;;;;;;;5016371;28;20491;-77
2022/04/01 08:10:48;;;;;;;1.80;1.30;;;;;;;;;;5018046;28;20801;-77
2022/04/01 08:13:14;;;;;;;5.53;1.60;;;;;;;;;;5017203;28;20434;-77
2022/04/01 08:15:40;;;;;;;1.77;1.23;;;;;;;;;;5017013;28;20407;-77
2022/04/01 08:18:06;;;;;;;2.70;1.90;;;;;;;;;;5026754;28;20512;-77
2022/04/01 08:20:33;;;;;;;2.10;1.23;;;;;;;;;;5031946;28;20407;-77
2022/04/01 08:22:59;;;;;;;2.10;1.60;;;;;;;;;;5018962;28;20439;-77
2022/04/01 08:25:25;;;;;;;2.80;1.80;;;;;;;;;;5016264;28;20434;-78
2022/04/01 08:27:51;;;;;;;4.53;1.40;;;;;;;;;;4999221;28;20777;-77
2022/04/01 08:30:17;;;;;;;1.60;1.20;;;;;;;;;;5016674;28;20422;-77
2022/04/01 08:32:43;;;;;;;2.50;1.43;;;;;;;;;;5016571;28;20404;-77
2022/04/01 08:35:09;;;;;;;1.80;1.37;;;;;;;;;;5015665;28;20403;-77
2022/04/01 08:37:35;;;;;;;1.80;1.30;;;;;;;;;;5016919;28;20447;-78
2022/04/01 08:40:01;;;;;;;2.13;1.23;;;;;;;;;;5000190;28;20411;-78
2022/04/01 08:42:27;;;;;;;1.40;1.10;;;;;;;;;;5015878;28;20399;-76
2022/04/01 08:44:54;;;;;;;1.60;1.30;;;;;;;;;;5015577;28;20427;-77
2022/04/01 08:47:20;;;;;;;1.50;1.03;;;;;;;;;;5015363;28;20403;-76
2022/04/01 08:49:46;;;;;;;1.80;1.27;;;;;;;;;;5016657;28;20419;-77
2022/04/01 08:52:12;;;;;;;2.00;1.47;;;;;;;;;;5015415;28;20986;-77
2022/04/01 08:54:39;;;;;;;1.77;1.37;;;;;;;;;;5017641;28;20525;-77
2022/04/01 08:57:08;;;;;;;2.43;1.30;;;;;;;;;;5014900;28;20418;-77
2022/04/01 08:59:35;;;;;;;1.70;1.20;;;;;;;;;;5015436;28;20866;-78
2022/04/01 09:02:08;;;;;;;2.80;1.30;;;;;;;;;;5016907;28;20406;-77
2022/04/01 09:04:35;;;;;;;1.60;1.30;;;;;;;;;;5016949;28;20429;-78
2022/04/01 09:07:11;;;;;;;1.50;1.20;;;;;;;;;;5015991;28;20915;-78
2022/04/01 09:09:37;;;;;;;1.53;1.43;;;;;;;;;;5015013;28;20815;-76
2022/04/01 09:12:16;;;;;;;1.83;1.00;;;;;;;;;;5016291;28;20407;-78
2022/04/01 09:14:49;;;;;;;1.60;1.00;;;;;;;;;;5015749;28;20493;-77
2022/04/01 09:17:15;;;;;;;3.13;1.40;;;;;;;;;;5014711;28;20466;-76
2022/04/01 09:19:42;;;;;;;1.60;1.00;;;;;;;;;;5014685;28;20817;-78
2022/04/01 09:22:15;;;;;;;1.30;0.97;;;;;;;;;;5014770;28;20403;-78
2022/04/01 09:24:52;;;;;;;1.50;0.83;;;;;;;;;;5014486;28;20450;-77
2022/04/01 09:27:18;;;;;;;1.80;1.30;;;;;;;;;;5014657;28;20414;-77
2022/04/01 09:29:44;;;;;;;1.83;1.10;;;;;;;;;;5014747;28;20487;-77
2022/04/01 09:32:10;;;;;;;4.17;1.10;;;;;;;;;;5014555;28;20900;-77
2022/04/01 09:34:40;;;;;;;1.70;0.93;;;;;;;;;;5014864;28;20476;-77
2022/04/01 09:37:08;;;;;;;1.70;1.00;;;;;;;;;;4997762;28;20419;-77
2022/04/01 09:39:34;;;;;;;1.77;1.03;;;;;;;;;;5016168;28;20403;-77
2022/04/01 09:42:00;;;;;;;1.60;1.10;;;;;;;;;;5014127;28;20404;-77
2022/04/01 09:44:30;;;;;;;1.40;1.10;;;;;;;;;;5014479;28;20427;-77
2022/04/01 09:46:58;;;;;;;3.13;1.47;;;;;;;;;;5014384;28;20425;-77
2022/04/01 09:49:39;;;;;;;2.73;1.10;;;;;;;;;;5014342;28;20400;-76
2022/04/01 09:52:09;;;;;;;2.13;1.30;;;;;;;;;;5013832;28;20498;-76
2022/04/01 09:54:45;;;;;;;6.03;1.30;;;;;;;;;;5013850;28;20434;-77
2022/04/01 09:57:11;;;;;;;3.10;1.20;;;;;;;;;;5014544;28;20455;-77
2022/04/01 09:59:37;;;;;;;6.33;1.87;;;;;;;;;;5014895;28;20403;-78
2022/04/01 10:02:03;;;;;;;2.73;1.20;;;;;;;;;;4996804;28;20458;-77
2022/04/01 10:04:29;;;;;;;4.10;1.30;;;;;;;;;;5014204;28;20503;-77
2022/04/01 10:06:55;;;;;;;1.87;1.10;;;;;;;;;;5016213;28;20844;-78
2022/04/01 10:09:23;;;;;;;3.87;1.20;;;;;;;;;;5017749;28;20407;-77
2022/04/01 10:11:49;;;;;;;1.83;1.07;;;;;;;;;;5016366;28;20932;-76
2022/04/01 10:14:17;;;;;;;2.47;1.23;;;;;;;;;;5000744;28;20789;-77
2022/04/01 10:16:44;;;;;;;1.40;1.17;;;;;;;;;;5019622;28;20411;-78
2022/04/01 10:19:14;;;;;;;6.37;2.73;;;;;;;;;;5006229;28;20458;-77
2022/04/01 10:21:43;;;;;;;1.77;1.33;;;;;;;;;;5017236;28;20383;-77
2022/04/01 10:24:15;;;;;;;3.83;1.33;;;;;;;;;;5017395;28;20442;-76
2022/04/01 10:26:45;;;;;;;1.67;1.40;;;;;;;;;;5014900;28;20450;-76
2022/04/01 10:29:11;;;;;;;2.57;1.47;;;;;;;;;;5015397;28;20411;-76
2022/04/01 10:31:39;;;;;;;1.83;1.10;;;;;;;;;;5014676;28;20430;-76
2022/04/01 10:34:24;;;;;;;1.70;1.27;;;;;;;;;;5014547;28;20431;-77
2022/04/01 10:36:54;;;;;;;1.40;1.20;;;;;;;;;;5014635;28;20461;-77
2022/04/01 10:39:20;;;;;;;1.57;1.23;;;;;;;;;;5014680;28;20466;-77
2022/04/01 10:42:06;;;;;;;2.27;1.43;;;;;;;;;;5016033;28;20396;-77
2022/04/01 10:44:58;;;;;;;1.90;1.43;;;;;;;;;;5015901;28;20480;-77
2022/04/01 10:51:36;;;;;;;2.90;1.23;;;;;;;;;;5015370;28;20912;-77
2022/04/01 10:53:34;;;;;;;1.33;1.03;;;;;;;;;;5018455;28;20513;-76
2022/04/01 10:56:18;;;;;;;2.10;1.60;;;;;;;;;;5018588;28;20407;-75
2022/04/01 10:59:03;;;;;;;1.90;1.07;;;;;;;;;;5018288;28;20450;-76
2022/04/01 11:01:29;;;;;;;1.90;1.27;;;;;;;;;;5018642;28;20399;-77
2022/04/01 11:04:07;;;;;;;3.20;1.67;;;;;;;;;;5018219;28;20796;-77
2022/04/01 11:06:49;;;;;;;1.70;1.40;;;;;;;;;;5018874;28;20835;-79
2022/04/01 11:09:34;;;;;;;2.33;1.30;;;;;;;;;;5024321;28;20392;-77
2022/04/01 11:12:15;;;;;;;2.00;1.30;;;;;;;;;;5020245;28;20418;-77
2022/04/01 11:15:08;;;;;;;2.00;1.70;;;;;;;;;;5018449;28;21000;-77
2022/04/01 11:17:34;;;;;;;1.50;1.13;;;;;;;;;;5013830;28;20829;-77
2022/04/01 11:20:15;;;;;;;1.70;1.30;;;;;;;;;;5018018;28;20411;-77
2022/04/01 11:22:41;;;;;;;1.77;1.30;;;;;;;;;;5000568;28;20923;-77
2022/04/01 11:25:08;;;;;;;1.97;1.47;;;;;;;;;;5052895;23;20489;-76
2022/04/01 11:27:34;;;;;;;1.50;1.20;;;;;;;;;;5036312;28;20929;-75
2022/04/01 11:30:08;;;;;;;3.03;1.30;;;;;;;;;;5036690;28;20807;-74
2022/04/01 11:32:37;;;;;;;2.07;1.40;;;;;;;;;;5036660;28;20405;-75
2022/04/01 11:35:05;;;;;;;2.03;1.30;;;;;;;;;;5036437;28;20425;-75
2022/04/01 11:37:35;;;;;;;2.20;1.63;;;;;;;;;;5018647;28;20559;-75
2022/04/01 11:40:08;;;;;;;2.27;1.53;;;;;;;;;;5035939;28;20765;-75
2022/04/01 11:42:34;;;;;;;2.83;2.07;;;;;;;;;;5018214;28;20406;-76
2022/04/01 11:45:00;;;;;;;1.80;1.20;;;;;;;;;;5035908;28;20442;-74
2022/04/01 11:47:35;;;;;;;3.40;1.57;;;;;;;;;;5018370;28;20480;-76
2022/04/01 11:50:08;;;;;;;3.10;1.50;;;;;;;;;;5035804;28;20471;-74
2022/04/01 11:52:38;;;;;;;2.60;1.80;;;;;;;;;;5035774;28;20418;-75
2022/04/01 11:55:10;;;;;;;1.90;1.50;;;;;;;;;;5035146;28;20438;-73
2022/04/01 11:57:36;;;;;;;2.60;1.70;;;;;;;;;;5034252;28;20529;-73
2022/04/01 12:00:09;;;;;;;1.93;1.63;;;;;;;;;;5033645;28;20411;-73
2022/04/01 12:02:36;;;;;;;1.70;1.53;;;;;;;;;;5035132;28;20414;-76
2022/04/01 12:05:02;;;;;;;1.87;1.57;;;;;;;;;;5034755;28;20445;-76
2022/04/01 12:10:19;;;;;;;2.20;2.00;;;;;;;;;;5035400;28;20485;-76
2022/04/01 12:12:59;;;;;;;2.20;1.90;;;;;;;;;;5035648;28;20464;-76
2022/04/01 12:15:33;;;;;;;2.77;1.90;;;;;;;;;;5035358;28;20426;-73
2022/04/01 12:18:00;;;;;;;2.40;2.13;;;;;;;;;;5035735;28;20794;-73
2022/04/01 12:20:28;;;;;;;2.13;1.73;;;;;;;;;;5035641;28;20426;-73
2022/04/01 12:22:55;;;;;;;2.50;2.03;;;;;;;;;;5035059;28;20790;-75
2022/04/01 12:25:21;;;;;;;3.10;1.90;;;;;;;;;;5035411;28;20496;-74
2022/04/01 12:27:57;;;;;;;2.50;1.93;;;;;;;;;;5036009;28;20421;-74
2022/04/01 12:30:31;;;;;;;1.60;1.40;;;;;;;;;;5035624;28;20493;-74
2022/04/01 12:32:59;;;;;;;1.70;1.60;;;;;;;;;;5035770;28;20476;-74
2022/04/01 12:35:25;;;;;;;3.13;1.70;;;;;;;;;;5035562;28;20492;-74
2022/04/01 12:38:07;;;;;;;1.97;1.47;;;;;;;;;;5035437;28;20950;-74
2022/04/01 12:40:34;;;;;;;2.53;2.10;;;;;;;;;;5035301;28;20413;-74
2022/04/01 12:43:01;;;;;;;1.70;1.40;;;;;;;;;;5035313;28;20489;-74
2022/04/01 12:45:27;;;;;;;2.43;1.50;;;;;;;;;;5035018;28;20425;-74
2022/04/01 12:47:53;;;;;;;2.00;1.63;;;;;;;;;;5035435;28;20406;-74
2022/04/01 12:50:35;;;;;;;2.17;1.90;;;;;;;;;;5035580;28;20430;-74
2022/04/01 12:53:12;;;;;;;1.50;1.20;;;;;;;;;;5035316;28;20399;-74
2022/04/01 12:55:38;;;;;;;1.97;1.73;;;;;;;;;;5035200;28;20456;-74
2022/04/01 12:58:09;;;;;;;3.90;1.80;;;;;;;;;;5034946;28;20857;-74
2022/04/01 13:00:35;;;;;;;2.93;1.50;;;;;;;;;;5035014;28;20387;-74
2022/04/01 13:03:01;;;;;;;2.77;1.60;;;;;;;;;;5034606;28;20465;-74
2022/04/01 13:05:28;;;;;;;2.03;1.67;;;;;;;;;;5034773;28;20430;-74
2022/04/01 13:07:54;;;;;;;1.57;1.37;;;;;;;;;;5035248;28;20414;-74
2022/04/01 13:10:21;;;;;;;1.70;1.40;;;;;;;;;;5034190;28;20497;-74
2022/04/01 13:12:48;;;;;;;1.70;1.40;;;;;;;;;;5034768;28;20509;-74
2022/04/01 13:15:17;;;;;;;2.90;1.90;;;;;;;;;;5034465;28;20973;-74
2022/04/01 13:17:50;;;;;;;1.80;1.20;;;;;;;;;;5034788;28;20446;-74
2022/04/01 13:20:17;;;;;;;1.83;1.40;;;;;;;;;;5034663;28;20456;-74
2022/04/01 13:22:44;;;;;;;1.70;1.50;;;;;;;;;;5034261;28;20413;-74
2022/04/01 13:25:12;;;;;;;2.80;1.80;;;;;;;;;;5033777;28;20457;-74
2022/04/01 13:27:39;;;;;;;2.00;1.43;;;;;;;;;;5030828;28;20504;-74
2022/04/01 13:30:06;;;;;;;2.07;1.47;;;;;;;;;;5034207;28;20424;-74
2022/04/01 13:32:32;;;;;;;1.87;1.60;;;;;;;;;;5033440;28;20418;-74
2022/04/01 13:34:58;;;;;;;2.27;1.73;;;;;;;;;;5033412;28;20488;-74
2022/04/01 13:37:24;;;;;;;2.10;1.70;;;;;;;;;;5033954;28;20460;-74
2022/04/01 13:39:50;;;;;;;2.03;1.40;;;;;;;;;;5032533;28;20568;-74
2022/04/01 13:42:16;;;;;;;4.03;2.33;;;;;;;;;;5015390;28;20407;-74
2022/04/01 13:44:42;;;;;;;1.92;1.55;;;;;;;;;;5033102;28;20421;-74
2022/04/01 13:47:11;;;;;;;1.83;1.50;;;;;;;;;;5015650;28;20179;-74
2022/04/01 13:49:37;;;;;;;2.10;1.80;;;;;;;;;;5033444;28;20426;-74
2022/04/01 13:52:03;;;;;;;3.50;2.30;;;;;;;;;;5033463;28;20410;-74
2022/04/01 13:54:30;;;;;;;2.13;1.90;;;;;;;;;;5033580;28;20549;-74
2022/04/01 13:56:58;;;;;;;2.20;1.80;;;;;;;;;;5033118;28;20430;-74
2022/04/01 13:59:26;;;;;;;2.23;1.87;;;;;;;;;;5032173;28;20426;-74
2022/04/01 14:01:52;;;;;;;2.00;1.80;;;;;;;;;;5033518;28;20509;-74
2022/04/01 14:04:20;;;;;;;2.03;1.80;;;;;;;;;;5033576;28;20512;-74
2022/04/01 14:06:47;;;;;;;2.47;1.53;;;;;;;;;;5033488;28;20406;-74
2022/04/01 14:09:13;;;;;;;4.23;1.67;;;;;;;;;;5032824;28;20476;-74
2022/04/01 14:11:39;;;;;;;1.97;1.60;;;;;;;;;;5015736;28;20410;-74
2022/04/01 14:14:06;;;;;;;2.50;2.10;;;;;;;;;;5033115;28;20434;-74
2022/04/01 14:16:36;;;;;;;2.73;2.20;;;;;;;;;;5033834;28;20402;-73
2022/04/01 14:19:06;;;;;;;2.40;1.90;;;;;;;;;;5033366;28;20464;-74
2022/04/01 14:21:32;;;;;;;2.13;1.40;;;;;;;;;;5031955;28;20453;-74
2022/04/01 14:23:58;;;;;;;2.23;1.90;;;;;;;;;;5032785;28;20466;-74
2022/04/01 14:26:28;;;;;;;3.07;2.13;;;;;;;;;;5032939;28;20429;-73
2022/04/01 14:28:55;;;;;;;2.70;2.40;;;;;;;;;;5015085;28;20425;-74
2022/04/01 14:31:21;;;;;;;2.90;2.47;;;;;;;;;;5032601;28;20476;-73
2022/04/01 14:33:48;;;;;;;2.40;2.20;;;;;;;;;;5032969;28;20957;-74
2022/04/01 14:36:14;;;;;;;3.47;2.80;;;;;;;;;;5013702;28;20830;-73
2022/04/01 14:38:40;;;;;;;3.40;3.10;;;;;;;;;;4996140;28;20505;-74
2022/04/01 14:41:07;;;;;;;2.33;2.07;;;;;;;;;;5013908;28;20403;-74
2022/04/01 14:43:33;;;;;;;2.37;2.17;;;;;;;;;;5028259;28;20446;-74
2022/04/01 14:45:59;;;;;;;2.77;2.27;;;;;;;;;;5032460;28;20576;-74
2022/04/01 14:48:25;;;;;;;4.77;2.43;;;;;;;;;;5030540;28;20422;-75
2022/04/01 14:50:51;;;;;;;2.93;2.63;;;;;;;;;;5033049;28;20433;-73
2022/04/01 14:53:17;;;;;;;2.80;2.33;;;;;;;;;;5033043;28;20460;-74
2022/04/01 14:55:43;;;;;;;2.13;1.93;;;;;;;;;;5032784;28;20422;-74
2022/04/01 14:58:09;;;;;;;2.80;2.50;;;;;;;;;;5033429;28;20532;-73
2022/04/01 15:00:36;;;;;;;3.13;2.83;;;;;;;;;;5033188;28;20422;-74
2022/04/01 15:03:03;;;;;;;2.97;2.40;;;;;;;;;;5033189;28;20399;-74
2022/04/01 15:05:29;;;;;;;2.40;2.20;;;;;;;;;;5032608;28;20442;-74